KHOU

William P Hobby Airport

Houston, Texas, USA
KHOU 171406Z 1714/1812 21004KT P6SM FEW020 SCT250 FM171500 22006KT P6SM SCT030 BKN250 FM172200 16009KT P6SM VCTS BKN050CB FM180200 18006KT P6SM FEW030 SCT250
Issued Valid From Valid To
Aug-17 @ 14:06 UTC
(51 minutes ago)
Aug-17 @ 14:00 UTC
(57 minutes ago)
Aug-18 @ 12:00 UTC
(in 21 hours)
Aug-17 @ 14:00 to Aug-17 @ 15:00
KHOU 171406Z 1714/1812 21004KT P6SM FEW020 SCT250
Wind Visibility Clouds
210° at 4 knots Greater than 6 miles
  • Few at 2,000' AGL
  • Scattered at 25,000' AGL
From Aug-17 @ 15:00 to Aug-17 @ 22:00
FM171500 22006KT P6SM SCT030 BKN250
Wind Visibility Clouds
220° at 6 knots Greater than 6 miles
  • Scattered at 3,000' AGL
  • Broken at 25,000' AGL
From Aug-17 @ 22:00 to Aug-18 @ 02:00
FM172200 16009KT P6SM VCTS BKN050CB
Wind Visibility Clouds Conditions
160° at 9 knots Greater than 6 miles
  • Broken at 5,000' AGL
  • Area Thunderstorm
From Aug-18 @ 02:00 to Aug-18 @ 12:00
FM180200 18006KT P6SM FEW030 SCT250
Wind Visibility Clouds
180° at 6 knots Greater than 6 miles
  • Few at 3,000' AGL
  • Scattered at 25,000' AGL
KHOU 171406Z 1714/1812 21004KT P6SM FEW020 SCT250 FM171500 22006KT P6SM SCT030 BKN250 FM172200 16009KT P6SM VCTS BKN050CB FM180200 18006KT P6SM FEW030 SCT250
Issued Aug-17 @ 14:06 UTC
(51 minutes ago)
Valid From Aug-17 @ 14:00 UTC
(57 minutes ago)
Valid To Aug-18 @ 12:00 UTC
(in 21 hours)
Aug-17 @ 14:00 - Aug-17 @ 15:00
Wind Visibility
210° at 4 knots Greater than 6 miles
Clouds
  • Few at 2,000' AGL
  • Scattered at 25,000' AGL
From Aug-17 @ 15:00 - Aug-17 @ 22:00
Wind Visibility
220° at 6 knots Greater than 6 miles
Clouds
  • Scattered at 3,000' AGL
  • Broken at 25,000' AGL
From Aug-17 @ 22:00 - Aug-18 @ 02:00
Wind Visibility
160° at 9 knots Greater than 6 miles
Clouds
  • Broken at 5,000' AGL
Conditions
  • Area Thunderstorm
From Aug-18 @ 02:00 - Aug-18 @ 12:00
Wind Visibility
180° at 6 knots Greater than 6 miles
Clouds
  • Few at 3,000' AGL
  • Scattered at 25,000' AGL